sensor_id;sensor_type;location;lat;lon;timestamp;P1;durP1;ratioP1;P2;durP2;ratioP2
43216;SDS011;71549;42.686;23.300;2023-09-19T00:01:54;3.22;;;2.92;;
43216;SDS011;71549;42.686;23.300;2023-09-19T00:03:57;3.72;;;3.17;;
43216;SDS011;71549;42.686;23.300;2023-09-19T00:05:59;4.57;;;3.13;;
43216;SDS011;71549;42.686;23.300;2023-09-19T00:08:00;3.70;;;3.30;;
43216;SDS011;71549;42.686;23.300;2023-09-19T00:10:00;3.33;;;3.03;;
43216;SDS011;71549;42.686;23.300;2023-09-19T00:12:01;3.53;;;3.22;;
43216;SDS011;71549;42.686;23.300;2023-09-19T00:14:01;3.85;;;3.03;;
43216;SDS011;71549;42.686;23.300;2023-09-19T00:16:11;3.63;;;3.33;;
43216;SDS011;71549;42.686;23.300;2023-09-19T00:18:13;4.95;;;3.10;;
43216;SDS011;71549;42.686;23.300;2023-09-19T00:22:17;3.15;;;2.85;;
43216;SDS011;71549;42.686;23.300;2023-09-19T00:24:19;3.42;;;3.00;;
43216;SDS011;71549;42.686;23.300;2023-09-19T00:26:19;3.95;;;3.17;;
43216;SDS011;71549;42.686;23.300;2023-09-19T00:28:22;3.60;;;3.30;;
43216;SDS011;71549;42.686;23.300;2023-09-19T00:30:22;3.58;;;3.28;;
43216;SDS011;71549;42.686;23.300;2023-09-19T00:32:24;3.35;;;3.05;;
43216;SDS011;71549;42.686;23.300;2023-09-19T00:34:26;3.33;;;2.97;;
43216;SDS011;71549;42.686;23.300;2023-09-19T00:36:26;5.47;;;3.63;;
43216;SDS011;71549;42.686;23.300;2023-09-19T00:38:27;3.75;;;3.15;;
43216;SDS011;71549;42.686;23.300;2023-09-19T00:40:27;4.00;;;2.95;;
43216;SDS011;71549;42.686;23.300;2023-09-19T00:42:28;3.67;;;3.30;;
43216;SDS011;71549;42.686;23.300;2023-09-19T00:44:28;3.72;;;2.70;;
43216;SDS011;71549;42.686;23.300;2023-09-19T00:46:30;5.07;;;2.88;;
43216;SDS011;71549;42.686;23.300;2023-09-19T00:48:32;3.60;;;2.97;;
43216;SDS011;71549;42.686;23.300;2023-09-19T00:50:41;3.13;;;2.72;;
43216;SDS011;71549;42.686;23.300;2023-09-19T00:52:43;3.10;;;2.80;;
43216;SDS011;71549;42.686;23.300;2023-09-19T00:54:45;3.50;;;3.20;;
43216;SDS011;71549;42.686;23.300;2023-09-19T00:56:47;3.07;;;2.87;;
43216;SDS011;71549;42.686;23.300;2023-09-19T00:58:48;3.15;;;2.85;;
43216;SDS011;71549;42.686;23.300;2023-09-19T01:00:49;4.03;;;3.58;;
43216;SDS011;71549;42.686;23.300;2023-09-19T01:02:50;3.88;;;2.90;;
43216;SDS011;71549;42.686;23.300;2023-09-19T01:04:51;3.50;;;3.20;;
43216;SDS011;71549;42.686;23.300;2023-09-19T01:06:53;3.20;;;2.90;;
43216;SDS011;71549;42.686;23.300;2023-09-19T01:08:54;3.50;;;3.20;;
43216;SDS011;71549;42.686;23.300;2023-09-19T01:10:57;4.07;;;3.08;;
43216;SDS011;71549;42.686;23.300;2023-09-19T01:17:53;4.03;;;3.63;;
43216;SDS011;71549;42.686;23.300;2023-09-19T01:20:32;3.65;;;3.35;;
43216;SDS011;71549;42.686;23.300;2023-09-19T01:32:08;3.40;;;3.05;;
43216;SDS011;71549;42.686;23.300;2023-09-19T01:34:09;3.38;;;3.08;;
43216;SDS011;71549;42.686;23.300;2023-09-19T01:36:10;3.85;;;3.53;;
43216;SDS011;71549;42.686;23.300;2023-09-19T01:38:10;3.15;;;2.85;;
43216;SDS011;71549;42.686;23.300;2023-09-19T01:40:15;3.78;;;3.47;;
43216;SDS011;71549;42.686;23.300;2023-09-19T01:45:03;3.47;;;3.17;;
43216;SDS011;71549;42.686;23.300;2023-09-19T01:47:07;3.55;;;2.90;;
43216;SDS011;71549;42.686;23.300;2023-09-19T01:51:46;3.88;;;3.42;;
43216;SDS011;71549;42.686;23.300;2023-09-19T01:53:59;3.63;;;3.33;;
43216;SDS011;71549;42.686;23.300;2023-09-19T01:56:08;3.95;;;3.10;;
43216;SDS011;71549;42.686;23.300;2023-09-19T01:58:17;3.95;;;3.55;;
43216;SDS011;71549;42.686;23.300;2023-09-19T02:00:22;4.00;;;3.60;;
43216;SDS011;71549;42.686;23.300;2023-09-19T02:04:29;4.05;;;3.65;;
43216;SDS011;71549;42.686;23.300;2023-09-19T02:06:30;4.82;;;3.83;;
43216;SDS011;71549;42.686;23.300;2023-09-19T02:08:32;4.30;;;3.72;;
43216;SDS011;71549;42.686;23.300;2023-09-19T02:10:33;5.38;;;3.33;;
43216;SDS011;71549;42.686;23.300;2023-09-19T02:12:34;3.92;;;3.58;;
43216;SDS011;71549;42.686;23.300;2023-09-19T02:14:36;3.90;;;3.55;;
43216;SDS011;71549;42.686;23.300;2023-09-19T02:16:37;4.07;;;3.70;;
43216;SDS011;71549;42.686;23.300;2023-09-19T02:18:38;4.40;;;4.00;;
43216;SDS011;71549;42.686;23.300;2023-09-19T02:20:39;3.70;;;3.40;;
43216;SDS011;71549;42.686;23.300;2023-09-19T02:22:40;4.55;;;4.15;;
43216;SDS011;71549;42.686;23.300;2023-09-19T02:24:41;6.43;;;4.43;;
43216;SDS011;71549;42.686;23.300;2023-09-19T02:26:42;3.88;;;3.58;;
43216;SDS011;71549;42.686;23.300;2023-09-19T02:28:44;4.10;;;3.70;;
43216;SDS011;71549;42.686;23.300;2023-09-19T02:30:49;5.35;;;4.57;;
43216;SDS011;71549;42.686;23.300;2023-09-19T02:32:50;4.72;;;4.32;;
43216;SDS011;71549;42.686;23.300;2023-09-19T02:34:52;4.65;;;4.22;;
43216;SDS011;71549;42.686;23.300;2023-09-19T02:36:52;4.10;;;3.58;;
43216;SDS011;71549;42.686;23.300;2023-09-19T02:38:54;4.85;;;4.03;;
43216;SDS011;71549;42.686;23.300;2023-09-19T02:40:57;5.90;;;4.50;;
43216;SDS011;71549;42.686;23.300;2023-09-19T02:42:57;4.18;;;3.78;;
43216;SDS011;71549;42.686;23.300;2023-09-19T02:44:59;5.15;;;4.53;;
43216;SDS011;71549;42.686;23.300;2023-09-19T02:46:59;3.95;;;3.55;;
43216;SDS011;71549;42.686;23.300;2023-09-19T02:49:03;4.05;;;3.75;;
43216;SDS011;71549;42.686;23.300;2023-09-19T02:51:07;3.83;;;3.53;;
43216;SDS011;71549;42.686;23.300;2023-09-19T02:53:07;4.00;;;3.67;;
43216;SDS011;71549;42.686;23.300;2023-09-19T02:55:09;3.67;;;3.35;;
43216;SDS011;71549;42.686;23.300;2023-09-19T02:59:15;4.78;;;3.83;;
43216;SDS011;71549;42.686;23.300;2023-09-19T03:01:17;4.45;;;4.05;;
43216;SDS011;71549;42.686;23.300;2023-09-19T03:03:18;4.90;;;4.00;;
43216;SDS011;71549;42.686;23.300;2023-09-19T03:05:19;3.70;;;3.38;;
43216;SDS011;71549;42.686;23.300;2023-09-19T03:07:20;5.18;;;3.88;;
43216;SDS011;71549;42.686;23.300;2023-09-19T03:09:21;4.35;;;3.95;;
43216;SDS011;71549;42.686;23.300;2023-09-19T03:11:22;4.20;;;3.83;;
43216;SDS011;71549;42.686;23.300;2023-09-19T03:13:23;3.90;;;3.58;;
43216;SDS011;71549;42.686;23.300;2023-09-19T03:15:23;4.18;;;3.55;;
43216;SDS011;71549;42.686;23.300;2023-09-19T03:17:24;4.43;;;4.07;;
43216;SDS011;71549;42.686;23.300;2023-09-19T03:19:25;4.30;;;3.90;;
43216;SDS011;71549;42.686;23.300;2023-09-19T03:21:26;5.32;;;4.18;;
43216;SDS011;71549;42.686;23.300;2023-09-19T03:25:30;5.38;;;3.95;;
43216;SDS011;71549;42.686;23.300;2023-09-19T03:27:30;4.57;;;3.53;;
43216;SDS011;71549;42.686;23.300;2023-09-19T03:29:31;4.35;;;3.95;;
43216;SDS011;71549;42.686;23.300;2023-09-19T03:31:31;4.43;;;3.88;;
43216;SDS011;71549;42.686;23.300;2023-09-19T03:33:32;4.07;;;3.60;;
43216;SDS011;71549;42.686;23.300;2023-09-19T03:35:33;3.53;;;3.03;;
43216;SDS011;71549;42.686;23.300;2023-09-19T03:37:35;4.45;;;4.05;;
43216;SDS011;71549;42.686;23.300;2023-09-19T03:39:35;4.18;;;3.88;;
43216;SDS011;71549;42.686;23.300;2023-09-19T03:41:36;5.45;;;4.13;;
43216;SDS011;71549;42.686;23.300;2023-09-19T03:43:36;3.72;;;3.42;;
43216;SDS011;71549;42.686;23.300;2023-09-19T03:45:37;4.40;;;3.97;;
43216;SDS011;71549;42.686;23.300;2023-09-19T03:47:38;5.95;;;4.00;;
43216;SDS011;71549;42.686;23.300;2023-09-19T03:49:39;5.03;;;4.53;;
43216;SDS011;71549;42.686;23.300;2023-09-19T03:51:40;4.28;;;3.78;;
43216;SDS011;71549;42.686;23.300;2023-09-19T03:53:41;6.80;;;4.07;;
43216;SDS011;71549;42.686;23.300;2023-09-19T03:55:41;6.30;;;4.88;;
43216;SDS011;71549;42.686;23.300;2023-09-19T03:57:47;4.45;;;4.05;;
43216;SDS011;71549;42.686;23.300;2023-09-19T03:59:49;5.93;;;4.53;;
43216;SDS011;71549;42.686;23.300;2023-09-19T04:01:50;5.20;;;4.70;;
43216;SDS011;71549;42.686;23.300;2023-09-19T04:03:50;4.65;;;4.20;;
43216;SDS011;71549;42.686;23.300;2023-09-19T04:05:53;4.43;;;4.03;;
43216;SDS011;71549;42.686;23.300;2023-09-19T04:07:53;4.63;;;4.10;;
43216;SDS011;71549;42.686;23.300;2023-09-19T04:09:54;5.55;;;4.50;;
43216;SDS011;71549;42.686;23.300;2023-09-19T04:11:55;7.00;;;5.05;;
43216;SDS011;71549;42.686;23.300;2023-09-19T04:13:55;7.80;;;5.00;;
43216;SDS011;71549;42.686;23.300;2023-09-19T04:15:56;7.40;;;5.70;;
43216;SDS011;71549;42.686;23.300;2023-09-19T04:17:56;5.75;;;5.20;;
43216;SDS011;71549;42.686;23.300;2023-09-19T04:19:58;7.50;;;5.45;;
43216;SDS011;71549;42.686;23.300;2023-09-19T04:21:59;5.72;;;4.60;;
43216;SDS011;71549;42.686;23.300;2023-09-19T04:23:59;6.72;;;4.88;;
43216;SDS011;71549;42.686;23.300;2023-09-19T04:26:00;6.90;;;5.88;;
43216;SDS011;71549;42.686;23.300;2023-09-19T04:28:00;6.00;;;4.78;;
43216;SDS011;71549;42.686;23.300;2023-09-19T04:30:01;6.43;;;5.03;;
43216;SDS011;71549;42.686;23.300;2023-09-19T04:32:03;6.78;;;5.15;;
43216;SDS011;71549;42.686;23.300;2023-09-19T04:34:04;6.20;;;5.15;;
43216;SDS011;71549;42.686;23.300;2023-09-19T04:36:05;7.65;;;5.45;;
43216;SDS011;71549;42.686;23.300;2023-09-19T04:38:07;7.73;;;5.00;;
43216;SDS011;71549;42.686;23.300;2023-09-19T04:40:08;5.55;;;5.05;;
43216;SDS011;71549;42.686;23.300;2023-09-19T04:42:17;7.55;;;5.28;;
43216;SDS011;71549;42.686;23.300;2023-09-19T04:44:18;6.35;;;4.65;;
43216;SDS011;71549;42.686;23.300;2023-09-19T04:46:18;6.95;;;4.75;;
43216;SDS011;71549;42.686;23.300;2023-09-19T04:48:19;6.25;;;4.82;;
43216;SDS011;71549;42.686;23.300;2023-09-19T04:50:19;7.00;;;4.75;;
43216;SDS011;71549;42.686;23.300;2023-09-19T04:52:22;8.68;;;5.65;;
43216;SDS011;71549;42.686;23.300;2023-09-19T04:54:22;5.95;;;4.97;;
43216;SDS011;71549;42.686;23.300;2023-09-19T04:56:23;8.23;;;4.82;;
43216;SDS011;71549;42.686;23.300;2023-09-19T04:58:24;8.32;;;5.68;;
43216;SDS011;71549;42.686;23.300;2023-09-19T05:00:24;6.13;;;4.63;;
43216;SDS011;71549;42.686;23.300;2023-09-19T05:02:29;5.82;;;5.10;;
43216;SDS011;71549;42.686;23.300;2023-09-19T05:04:31;6.90;;;4.85;;
43216;SDS011;71549;42.686;23.300;2023-09-19T05:06:32;5.68;;;4.97;;
43216;SDS011;71549;42.686;23.300;2023-09-19T05:08:33;5.50;;;5.00;;
43216;SDS011;71549;42.686;23.300;2023-09-19T05:10:35;6.65;;;4.70;;
43216;SDS011;71549;42.686;23.300;2023-09-19T05:12:39;6.63;;;5.22;;
43216;SDS011;71549;42.686;23.300;2023-09-19T05:14:40;6.38;;;4.97;;
43216;SDS011;71549;42.686;23.300;2023-09-19T05:16:40;5.80;;;4.72;;
43216;SDS011;71549;42.686;23.300;2023-09-19T05:18:41;5.15;;;4.55;;
43216;SDS011;71549;42.686;23.300;2023-09-19T05:20:42;6.32;;;5.45;;
43216;SDS011;71549;42.686;23.300;2023-09-19T05:22:43;4.68;;;4.20;;
43216;SDS011;71549;42.686;23.300;2023-09-19T05:24:46;5.22;;;4.18;;
43216;SDS011;71549;42.686;23.300;2023-09-19T05:26:50;4.57;;;3.65;;
43216;SDS011;71549;42.686;23.300;2023-09-19T05:28:51;6.05;;;4.70;;
43216;SDS011;71549;42.686;23.300;2023-09-19T05:30:53;5.57;;;4.03;;
43216;SDS011;71549;42.686;23.300;2023-09-19T05:32:53;4.88;;;4.20;;
43216;SDS011;71549;42.686;23.300;2023-09-19T05:34:55;4.90;;;4.43;;
43216;SDS011;71549;42.686;23.300;2023-09-19T05:36:56;4.60;;;4.20;;
43216;SDS011;71549;42.686;23.300;2023-09-19T05:38:57;7.43;;;4.50;;
43216;SDS011;71549;42.686;23.300;2023-09-19T05:40:57;7.13;;;4.38;;
43216;SDS011;71549;42.686;23.300;2023-09-19T05:42:57;7.30;;;4.63;;
43216;SDS011;71549;42.686;23.300;2023-09-19T05:44:58;6.05;;;4.55;;
43216;SDS011;71549;42.686;23.300;2023-09-19T05:46:58;4.80;;;3.65;;
43216;SDS011;71549;42.686;23.300;2023-09-19T05:48:59;4.53;;;4.13;;
43216;SDS011;71549;42.686;23.300;2023-09-19T05:50:59;5.45;;;4.20;;
43216;SDS011;71549;42.686;23.300;2023-09-19T05:53:01;7.85;;;3.75;;
43216;SDS011;71549;42.686;23.300;2023-09-19T05:55:01;8.13;;;4.05;;
43216;SDS011;71549;42.686;23.300;2023-09-19T05:57:04;6.38;;;3.90;;
43216;SDS011;71549;42.686;23.300;2023-09-19T05:59:04;5.25;;;3.67;;
43216;SDS011;71549;42.686;23.300;2023-09-19T06:01:05;5.13;;;3.90;;
43216;SDS011;71549;42.686;23.300;2023-09-19T06:03:07;5.72;;;3.92;;
43216;SDS011;71549;42.686;23.300;2023-09-19T06:05:08;4.78;;;3.88;;
43216;SDS011;71549;42.686;23.300;2023-09-19T06:09:12;4.18;;;3.80;;
43216;SDS011;71549;42.686;23.300;2023-09-19T06:11:12;6.20;;;3.88;;
43216;SDS011;71549;42.686;23.300;2023-09-19T06:13:13;4.22;;;3.83;;
43216;SDS011;71549;42.686;23.300;2023-09-19T06:15:13;4.68;;;4.00;;
43216;SDS011;71549;42.686;23.300;2023-09-19T06:17:18;4.82;;;3.42;;
43216;SDS011;71549;42.686;23.300;2023-09-19T06:19:20;4.13;;;3.78;;
43216;SDS011;71549;42.686;23.300;2023-09-19T06:21:22;4.95;;;3.75;;
43216;SDS011;71549;42.686;23.300;2023-09-19T06:23:23;4.93;;;4.35;;
43216;SDS011;71549;42.686;23.300;2023-09-19T06:25:26;7.40;;;3.90;;
43216;SDS011;71549;42.686;23.300;2023-09-19T06:27:27;4.85;;;4.30;;
43216;SDS011;71549;42.686;23.300;2023-09-19T06:29:29;4.15;;;3.75;;
43216;SDS011;71549;42.686;23.300;2023-09-19T06:31:29;5.78;;;4.30;;
43216;SDS011;71549;42.686;23.300;2023-09-19T06:33:32;4.43;;;3.65;;
43216;SDS011;71549;42.686;23.300;2023-09-19T06:35:33;4.90;;;3.50;;
43216;SDS011;71549;42.686;23.300;2023-09-19T06:37:34;3.90;;;3.50;;
43216;SDS011;71549;42.686;23.300;2023-09-19T06:39:35;4.15;;;3.40;;
43216;SDS011;71549;42.686;23.300;2023-09-19T06:41:44;4.55;;;3.67;;
43216;SDS011;71549;42.686;23.300;2023-09-19T06:43:45;5.28;;;3.47;;
43216;SDS011;71549;42.686;23.300;2023-09-19T06:45:46;4.22;;;3.70;;
43216;SDS011;71549;42.686;23.300;2023-09-19T06:47:47;3.95;;;3.38;;
43216;SDS011;71549;42.686;23.300;2023-09-19T06:49:50;4.80;;;3.75;;
43216;SDS011;71549;42.686;23.300;2023-09-19T06:51:53;6.97;;;3.65;;
43216;SDS011;71549;42.686;23.300;2023-09-19T06:53:54;3.55;;;3.25;;
43216;SDS011;71549;42.686;23.300;2023-09-19T06:55:56;4.25;;;3.60;;
43216;SDS011;71549;42.686;23.300;2023-09-19T06:57:57;4.30;;;3.47;;
43216;SDS011;71549;42.686;23.300;2023-09-19T06:59:58;3.95;;;3.20;;
43216;SDS011;71549;42.686;23.300;2023-09-19T07:02:01;4.55;;;3.80;;
43216;SDS011;71549;42.686;23.300;2023-09-19T07:04:02;4.78;;;4.22;;
43216;SDS011;71549;42.686;23.300;2023-09-19T07:06:02;4.05;;;3.28;;
43216;SDS011;71549;42.686;23.300;2023-09-19T07:08:05;3.85;;;3.05;;
43216;SDS011;71549;42.686;23.300;2023-09-19T07:10:06;3.80;;;3.25;;
43216;SDS011;71549;42.686;23.300;2023-09-19T07:12:11;3.38;;;3.08;;
43216;SDS011;71549;42.686;23.300;2023-09-19T07:14:12;3.80;;;3.22;;
43216;SDS011;71549;42.686;23.300;2023-09-19T07:16:13;3.50;;;3.20;;
43216;SDS011;71549;42.686;23.300;2023-09-19T07:18:27;4.03;;;3.42;;
43216;SDS011;71549;42.686;23.300;2023-09-19T07:20:27;5.05;;;3.80;;
43216;SDS011;71549;42.686;23.300;2023-09-19T07:22:31;3.80;;;3.45;;
43216;SDS011;71549;42.686;23.300;2023-09-19T07:24:32;5.38;;;3.53;;
43216;SDS011;71549;42.686;23.300;2023-09-19T07:26:32;5.90;;;3.58;;
43216;SDS011;71549;42.686;23.300;2023-09-19T07:28:33;5.47;;;3.67;;
43216;SDS011;71549;42.686;23.300;2023-09-19T07:30:38;4.88;;;3.47;;
43216;SDS011;71549;42.686;23.300;2023-09-19T07:32:39;4.22;;;3.63;;
43216;SDS011;71549;42.686;23.300;2023-09-19T07:34:41;3.80;;;3.50;;
43216;SDS011;71549;42.686;23.300;2023-09-19T07:36:42;3.60;;;3.15;;
43216;SDS011;71549;42.686;23.300;2023-09-19T07:38:43;4.15;;;3.55;;
43216;SDS011;71549;42.686;23.300;2023-09-19T07:40:44;4.90;;;3.65;;
43216;SDS011;71549;42.686;23.300;2023-09-19T07:42:45;3.83;;;3.42;;
43216;SDS011;71549;42.686;23.300;2023-09-19T07:44:46;4.70;;;3.42;;
43216;SDS011;71549;42.686;23.300;2023-09-19T07:46:49;4.03;;;2.95;;
43216;SDS011;71549;42.686;23.300;2023-09-19T07:48:51;3.60;;;3.30;;
43216;SDS011;71549;42.686;23.300;2023-09-19T07:50:52;3.80;;;3.08;;
43216;SDS011;71549;42.686;23.300;2023-09-19T07:52:52;6.40;;;4.13;;
43216;SDS011;71549;42.686;23.300;2023-09-19T07:54:53;4.00;;;3.47;;
43216;SDS011;71549;42.686;23.300;2023-09-19T07:56:54;4.38;;;3.55;;
43216;SDS011;71549;42.686;23.300;2023-09-19T07:58:55;4.43;;;4.00;;
43216;SDS011;71549;42.686;23.300;2023-09-19T08:01:02;3.58;;;3.28;;
43216;SDS011;71549;42.686;23.300;2023-09-19T08:03:06;3.78;;;3.47;;
43216;SDS011;71549;42.686;23.300;2023-09-19T08:05:09;3.72;;;3.30;;
43216;SDS011;71549;42.686;23.300;2023-09-19T08:07:11;3.47;;;3.13;;
43216;SDS011;71549;42.686;23.300;2023-09-19T08:09:13;3.17;;;2.88;;
43216;SDS011;71549;42.686;23.300;2023-09-19T08:11:20;3.60;;;3.30;;
43216;SDS011;71549;42.686;23.300;2023-09-19T08:13:23;3.72;;;3.35;;
43216;SDS011;71549;42.686;23.300;2023-09-19T08:15:24;3.85;;;3.35;;
43216;SDS011;71549;42.686;23.300;2023-09-19T08:17:25;4.05;;;3.08;;
43216;SDS011;71549;42.686;23.300;2023-09-19T08:19:25;4.43;;;3.22;;
43216;SDS011;71549;42.686;23.300;2023-09-19T08:21:31;3.80;;;3.42;;
43216;SDS011;71549;42.686;23.300;2023-09-19T08:23:32;3.60;;;3.25;;
43216;SDS011;71549;42.686;23.300;2023-09-19T08:25:33;3.25;;;2.95;;
43216;SDS011;71549;42.686;23.300;2023-09-19T08:27:34;5.20;;;3.35;;
43216;SDS011;71549;42.686;23.300;2023-09-19T08:29:36;3.50;;;3.10;;
43216;SDS011;71549;42.686;23.300;2023-09-19T08:31:36;4.80;;;3.00;;
43216;SDS011;71549;42.686;23.300;2023-09-19T08:33:37;3.63;;;3.33;;
43216;SDS011;71549;42.686;23.300;2023-09-19T08:35:38;5.22;;;3.15;;
43216;SDS011;71549;42.686;23.300;2023-09-19T08:37:41;3.75;;;3.03;;
43216;SDS011;71549;42.686;23.300;2023-09-19T08:39:42;3.65;;;3.35;;
43216;SDS011;71549;42.686;23.300;2023-09-19T08:41:43;3.10;;;2.80;;
43216;SDS011;71549;42.686;23.300;2023-09-19T08:43:44;3.30;;;2.90;;
43216;SDS011;71549;42.686;23.300;2023-09-19T08:45:46;3.65;;;3.30;;
43216;SDS011;71549;42.686;23.300;2023-09-19T08:47:50;3.90;;;3.35;;
43216;SDS011;71549;42.686;23.300;2023-09-19T08:50:17;3.25;;;2.97;;
43216;SDS011;71549;42.686;23.300;2023-09-19T08:52:22;3.42;;;2.97;;
43216;SDS011;71549;42.686;23.300;2023-09-19T08:54:29;2.67;;;2.47;;
43216;SDS011;71549;42.686;23.300;2023-09-19T08:56:35;3.60;;;3.30;;
43216;SDS011;71549;42.686;23.300;2023-09-19T08:58:43;4.55;;;3.05;;
43216;SDS011;71549;42.686;23.300;2023-09-19T09:00:48;3.65;;;3.35;;
43216;SDS011;71549;42.686;23.300;2023-09-19T09:02:51;3.30;;;3.00;;
43216;SDS011;71549;42.686;23.300;2023-09-19T09:04:52;3.58;;;3.28;;
43216;SDS011;71549;42.686;23.300;2023-09-19T09:06:54;4.47;;;3.25;;
43216;SDS011;71549;42.686;23.300;2023-09-19T09:08:56;3.50;;;2.65;;
43216;SDS011;71549;42.686;23.300;2023-09-19T09:10:58;4.55;;;3.38;;
43216;SDS011;71549;42.686;23.300;2023-09-19T09:12:59;3.47;;;2.92;;
43216;SDS011;71549;42.686;23.300;2023-09-19T09:15:00;4.88;;;3.00;;
43216;SDS011;71549;42.686;23.300;2023-09-19T09:17:00;3.38;;;2.92;;
43216;SDS011;71549;42.686;23.300;2023-09-19T09:19:02;3.58;;;3.05;;
43216;SDS011;71549;42.686;23.300;2023-09-19T09:21:04;3.80;;;3.40;;
43216;SDS011;71549;42.686;23.300;2023-09-19T09:23:05;3.03;;;2.72;;
43216;SDS011;71549;42.686;23.300;2023-09-19T09:25:14;3.95;;;3.47;;
43216;SDS011;71549;42.686;23.300;2023-09-19T09:27:17;3.83;;;2.72;;
43216;SDS011;71549;42.686;23.300;2023-09-19T09:29:57;2.83;;;2.55;;
43216;SDS011;71549;42.686;23.300;2023-09-19T09:31:51;4.72;;;3.55;;
43216;SDS011;71549;42.686;23.300;2023-09-19T09:33:53;3.95;;;2.53;;
43216;SDS011;71549;42.686;23.300;2023-09-19T09:35:56;3.53;;;3.20;;
43216;SDS011;71549;42.686;23.300;2023-09-19T09:38:00;3.38;;;3.00;;
43216;SDS011;71549;42.686;23.300;2023-09-19T09:40:07;3.20;;;2.85;;
43216;SDS011;71549;42.686;23.300;2023-09-19T09:42:21;5.25;;;3.15;;
43216;SDS011;71549;42.686;23.300;2023-09-19T09:44:35;4.75;;;3.20;;
43216;SDS011;71549;42.686;23.300;2023-09-19T09:47:02;3.67;;;3.10;;
43216;SDS011;71549;42.686;23.300;2023-09-19T09:49:26;4.63;;;3.00;;
43216;SDS011;71549;42.686;23.300;2023-09-19T09:51:36;6.03;;;3.60;;
43216;SDS011;71549;42.686;23.300;2023-09-19T09:53:39;6.37;;;3.30;;
43216;SDS011;71549;42.686;23.300;2023-09-19T09:58:18;3.95;;;3.55;;
43216;SDS011;71549;42.686;23.300;2023-09-19T10:00:19;5.68;;;3.17;;
43216;SDS011;71549;42.686;23.300;2023-09-19T10:02:21;3.83;;;3.10;;
43216;SDS011;71549;42.686;23.300;2023-09-19T10:04:29;3.70;;;3.30;;
43216;SDS011;71549;42.686;23.300;2023-09-19T10:06:42;4.53;;;3.25;;
43216;SDS011;71549;42.686;23.300;2023-09-19T10:09:07;5.45;;;3.92;;
43216;SDS011;71549;42.686;23.300;2023-09-19T10:11:15;3.42;;;3.13;;
43216;SDS011;71549;42.686;23.300;2023-09-19T10:13:16;4.50;;;3.60;;
43216;SDS011;71549;42.686;23.300;2023-09-19T10:15:22;4.47;;;3.10;;
43216;SDS011;71549;42.686;23.300;2023-09-19T10:17:27;5.18;;;3.30;;
43216;SDS011;71549;42.686;23.300;2023-09-19T10:19:42;3.65;;;3.28;;
43216;SDS011;71549;42.686;23.300;2023-09-19T10:21:50;4.97;;;3.20;;
43216;SDS011;71549;42.686;23.300;2023-09-19T10:23:57;6.55;;;3.03;;
43216;SDS011;71549;42.686;23.300;2023-09-19T10:25:59;4.22;;;3.35;;
43216;SDS011;71549;42.686;23.300;2023-09-19T10:28:02;5.03;;;3.83;;
43216;SDS011;71549;42.686;23.300;2023-09-19T10:30:04;4.35;;;3.25;;
43216;SDS011;71549;42.686;23.300;2023-09-19T10:32:16;5.50;;;3.67;;
43216;SDS011;71549;42.686;23.300;2023-09-19T10:34:19;3.60;;;3.25;;
43216;SDS011;71549;42.686;23.300;2023-09-19T10:38:27;3.70;;;3.08;;
43216;SDS011;71549;42.686;23.300;2023-09-19T10:40:29;3.88;;;3.45;;
43216;SDS011;71549;42.686;23.300;2023-09-19T10:42:32;4.88;;;3.25;;
43216;SDS011;71549;42.686;23.300;2023-09-19T10:44:38;4.30;;;3.25;;
43216;SDS011;71549;42.686;23.300;2023-09-19T10:46:43;3.80;;;3.28;;
43216;SDS011;71549;42.686;23.300;2023-09-19T10:48:45;4.30;;;3.03;;
43216;SDS011;71549;42.686;23.300;2023-09-19T10:50:50;4.03;;;3.33;;
43216;SDS011;71549;42.686;23.300;2023-09-19T10:53:08;4.63;;;4.22;;
43216;SDS011;71549;42.686;23.300;2023-09-19T10:55:10;4.65;;;3.50;;
43216;SDS011;71549;42.686;23.300;2023-09-19T10:57:19;3.85;;;2.95;;
43216;SDS011;71549;42.686;23.300;2023-09-19T11:01:58;4.38;;;3.97;;
43216;SDS011;71549;42.686;23.300;2023-09-19T11:06:32;3.33;;;2.95;;
43216;SDS011;71549;42.686;23.300;2023-09-19T11:11:38;5.18;;;3.22;;
43216;SDS011;71549;42.686;23.300;2023-09-19T11:16:24;4.68;;;3.70;;
43216;SDS011;71549;42.686;23.300;2023-09-19T11:19:10;5.53;;;3.25;;
43216;SDS011;71549;42.686;23.300;2023-09-19T11:20:47;3.53;;;2.80;;
43216;SDS011;71549;42.686;23.300;2023-09-19T11:25:41;4.85;;;4.10;;
43216;SDS011;71549;42.686;23.300;2023-09-19T11:27:30;4.68;;;3.20;;
43216;SDS011;71549;42.686;23.300;2023-09-19T11:29:34;4.07;;;3.25;;
43216;SDS011;71549;42.686;23.300;2023-09-19T11:31:42;4.32;;;3.85;;
43216;SDS011;71549;42.686;23.300;2023-09-19T11:33:44;4.95;;;3.70;;
43216;SDS011;71549;42.686;23.300;2023-09-19T11:36:05;4.68;;;3.22;;
43216;SDS011;71549;42.686;23.300;2023-09-19T11:38:12;4.35;;;3.55;;
43216;SDS011;71549;42.686;23.300;2023-09-19T11:40:15;3.97;;;3.45;;
43216;SDS011;71549;42.686;23.300;2023-09-19T11:42:49;4.90;;;3.10;;
43216;SDS011;71549;42.686;23.300;2023-09-19T11:44:49;4.50;;;3.10;;
43216;SDS011;71549;42.686;23.300;2023-09-19T11:48:53;3.92;;;3.47;;
43216;SDS011;71549;42.686;23.300;2023-09-19T11:50:55;4.47;;;3.35;;
43216;SDS011;71549;42.686;23.300;2023-09-19T11:52:57;3.65;;;3.35;;
43216;SDS011;71549;42.686;23.300;2023-09-19T11:54:58;4.43;;;3.55;;
43216;SDS011;71549;42.686;23.300;2023-09-19T11:57:01;4.72;;;3.25;;
43216;SDS011;71549;42.686;23.300;2023-09-19T11:59:03;4.22;;;3.45;;
43216;SDS011;71549;42.686;23.300;2023-09-19T12:01:03;3.75;;;2.63;;
43216;SDS011;71549;42.686;23.300;2023-09-19T12:03:13;3.83;;;3.03;;
43216;SDS011;71549;42.686;23.300;2023-09-19T12:05:27;4.38;;;3.42;;
43216;SDS011;71549;42.686;23.300;2023-09-19T12:07:29;3.80;;;3.50;;
43216;SDS011;71549;42.686;23.300;2023-09-19T12:09:30;6.65;;;3.70;;
43216;SDS011;71549;42.686;23.300;2023-09-19T12:11:31;3.92;;;3.05;;
43216;SDS011;71549;42.686;23.300;2023-09-19T12:13:35;3.90;;;3.03;;
43216;SDS011;71549;42.686;23.300;2023-09-19T12:15:38;4.47;;;3.58;;
43216;SDS011;71549;42.686;23.300;2023-09-19T12:17:41;6.35;;;3.30;;
43216;SDS011;71549;42.686;23.300;2023-09-19T12:19:55;3.90;;;3.50;;
43216;SDS011;71549;42.686;23.300;2023-09-19T12:21:57;3.67;;;3.20;;
43216;SDS011;71549;42.686;23.300;2023-09-19T12:24:12;5.73;;;3.33;;
43216;SDS011;71549;42.686;23.300;2023-09-19T12:26:19;4.25;;;3.38;;
43216;SDS011;71549;42.686;23.300;2023-09-19T12:28:20;4.40;;;3.10;;
43216;SDS011;71549;42.686;23.300;2023-09-19T12:30:28;3.17;;;2.50;;
43216;SDS011;71549;42.686;23.300;2023-09-19T12:32:35;3.60;;;3.30;;
43216;SDS011;71549;42.686;23.300;2023-09-19T12:34:36;4.15;;;3.75;;
43216;SDS011;71549;42.686;23.300;2023-09-19T12:36:42;5.30;;;3.40;;
43216;SDS011;71549;42.686;23.300;2023-09-19T12:38:43;3.88;;;3.47;;
43216;SDS011;71549;42.686;23.300;2023-09-19T12:40:50;4.20;;;3.78;;
43216;SDS011;71549;42.686;23.300;2023-09-19T12:42:51;3.75;;;3.42;;
43216;SDS011;71549;42.686;23.300;2023-09-19T12:44:55;3.47;;;3.17;;
43216;SDS011;71549;42.686;23.300;2023-09-19T12:46:57;3.75;;;3.00;;
43216;SDS011;71549;42.686;23.300;2023-09-19T12:49:15;3.88;;;3.22;;
43216;SDS011;71549;42.686;23.300;2023-09-19T12:51:26;4.88;;;3.50;;
43216;SDS011;71549;42.686;23.300;2023-09-19T12:55:45;5.53;;;3.38;;
43216;SDS011;71549;42.686;23.300;2023-09-19T13:00:17;3.58;;;3.03;;
43216;SDS011;71549;42.686;23.300;2023-09-19T13:02:17;4.40;;;3.35;;
43216;SDS011;71549;42.686;23.300;2023-09-19T13:04:23;2.70;;;2.50;;
43216;SDS011;71549;42.686;23.300;2023-09-19T13:06:35;2.85;;;2.65;;